Tropical Cyclones
[Index]
Main Index Home Page Stock Weather Photos Extreme Storms Discussion Storm News and Storm Chasing Reports Tropical Cyclones / Hurricanes / Typhoons Weather Data and Links Wild Fires / Bushfires Weather Observation Techniques Weather Picture Catalogue Tornado Pictures and Reports Stock Video Footage and DVDs for sale
Season 2014-2015 Tropical Cyclone MARCIA Track Map
Season 2014-2015 Summaries: [BoM-AU] [JTWC-AU] [JTWC-SIO] [JTWC-SPAC] [JTWC-SH]
<<- Previous TC | JTWC 2014-2015 Season | Next TC ->>

click for intensity scale information  Lat/long Grid: Show Hide

 Date Labels: Show Hide

Joint Typhoon Warning Centre Cyclone Data

Name: MARCIA

17 Feb 2015 00:00 UTC to 22 Feb 2015 12:00 UTC

    date/time    lat    long     hPa   cat  kts
2015-02-17 00   14.6   155.6    1000         30          
2015-02-17 06   14.8   155.8    1000         30          
2015-02-17 12   15.1   156.0    1000         30          
2015-02-17 18   15.5   156.1    1000         30          
2015-02-18 00   16.5   155.9     996         35          
2015-02-18 06   17.3   155.3     996         35          
2015-02-18 12   18.3   154.3     993    1    40          
2015-02-18 18   19.2   153.2     989    1    45          
2015-02-19 00   20.0   152.1     974    2    65          
2015-02-19 00   20.0   152.1     974    2    65          
2015-02-19 06   20.5   150.8     956    3    90          
2015-02-19 06   20.5   150.8     956    3    90          
2015-02-19 06   20.5   150.8     956    3    90          
2015-02-19 12   20.9   150.6     937    4   115          
2015-02-19 12   20.9   150.6     937    4   115          
2015-02-19 12   20.9   150.6     937    4   115          
2015-02-19 18   21.7   150.5     929    5   125          
2015-02-19 18   21.7   150.5     929    5   125          
2015-02-19 18   21.7   150.5     929    5   125          
2015-02-20 00   22.8   150.5     937    4   115          
2015-02-20 00   22.8   150.5     937    4   115          
2015-02-20 00   22.8   150.5     937    4   115          
2015-02-20 06   23.8   150.5     967    3    75          
2015-02-20 06   23.8   150.5     967    3    75          
2015-02-20 06   23.8   150.5     967    3    75          
2015-02-20 12   24.6   150.9     982    2    55          
2015-02-20 12   24.6   150.9     982    2    55          
2015-02-20 18   25.5   151.5     996         35          
2015-02-21 00   26.1   152.1    1000         30          
2015-02-21 06   26.7   153.1    1000         30          
2015-02-21 12   27.2   154.2    1000         30          
2015-02-21 18   27.2   154.7     996         35          
2015-02-22 00   27.1   155.1     996         35          
2015-02-22 06   26.8   155.5     996         35          
2015-02-22 12   26.2   155.6     996         35          
Winds are 1-min average.

Tropical cyclone tracks developed by Michael Bath using data from the Joint Typhoon Warning Centre Best Tracks and Google Maps.


[Australian Severe Weather index] [Copyright Notice] [Email Contacts] [Search This Site] [Privacy Policy]
Document: tropical_cyclone_marcia.htm Updated: 28 June 2017